sensor_id;sensor_type;location;lat;lon;timestamp;P1;durP1;ratioP1;P2;durP2;ratioP2
19059;SDS011;9663;48.996;8.334;2022-12-18T00:01:15;16.83;;;7.97;;
19059;SDS011;9663;48.996;8.334;2022-12-18T00:04:02;15.75;;;8.00;;
19059;SDS011;9663;48.996;8.334;2022-12-18T00:06:39;14.10;;;7.50;;
19059;SDS011;9663;48.996;8.334;2022-12-18T00:09:05;18.08;;;8.73;;
19059;SDS011;9663;48.996;8.334;2022-12-18T00:11:31;15.60;;;7.43;;
19059;SDS011;9663;48.996;8.334;2022-12-18T00:13:58;19.70;;;10.17;;
19059;SDS011;9663;48.996;8.334;2022-12-18T00:16:25;19.97;;;8.93;;
19059;SDS011;9663;48.996;8.334;2022-12-18T00:18:53;20.20;;;9.17;;
19059;SDS011;9663;48.996;8.334;2022-12-18T00:21:25;18.85;;;8.55;;
19059;SDS011;9663;48.996;8.334;2022-12-18T00:23:52;19.23;;;8.03;;
19059;SDS011;9663;48.996;8.334;2022-12-18T00:26:25;18.80;;;8.43;;
19059;SDS011;9663;48.996;8.334;2022-12-18T00:28:54;17.23;;;7.77;;
19059;SDS011;9663;48.996;8.334;2022-12-18T00:31:24;16.63;;;8.10;;
19059;SDS011;9663;48.996;8.334;2022-12-18T00:33:50;16.57;;;8.00;;
19059;SDS011;9663;48.996;8.334;2022-12-18T00:36:22;18.13;;;7.60;;
19059;SDS011;9663;48.996;8.334;2022-12-18T00:38:51;16.70;;;7.60;;
19059;SDS011;9663;48.996;8.334;2022-12-18T00:41:19;15.43;;;7.32;;
19059;SDS011;9663;48.996;8.334;2022-12-18T00:44:05;16.07;;;7.00;;
19059;SDS011;9663;48.996;8.334;2022-12-18T00:46:32;16.42;;;7.72;;
19059;SDS011;9663;48.996;8.334;2022-12-18T00:48:58;17.40;;;7.95;;
19059;SDS011;9663;48.996;8.334;2022-12-18T00:51:24;17.10;;;8.17;;
19059;SDS011;9663;48.996;8.334;2022-12-18T00:53:51;18.17;;;8.73;;
19059;SDS011;9663;48.996;8.334;2022-12-18T00:56:20;16.13;;;8.10;;
19059;SDS011;9663;48.996;8.334;2022-12-18T00:58:47;19.37;;;7.93;;
19059;SDS011;9663;48.996;8.334;2022-12-18T01:01:13;15.50;;;8.10;;
19059;SDS011;9663;48.996;8.334;2022-12-18T01:03:39;15.77;;;7.87;;
19059;SDS011;9663;48.996;8.334;2022-12-18T01:06:09;17.53;;;7.37;;
19059;SDS011;9663;48.996;8.334;2022-12-18T01:08:36;17.00;;;8.50;;
19059;SDS011;9663;48.996;8.334;2022-12-18T01:11:07;18.57;;;8.60;;
19059;SDS011;9663;48.996;8.334;2022-12-18T01:13:39;16.40;;;8.80;;
19059;SDS011;9663;48.996;8.334;2022-12-18T01:16:05;16.57;;;8.27;;
19059;SDS011;9663;48.996;8.334;2022-12-18T01:18:31;18.53;;;8.67;;
19059;SDS011;9663;48.996;8.334;2022-12-18T01:20:57;17.53;;;7.90;;
19059;SDS011;9663;48.996;8.334;2022-12-18T01:23:26;17.20;;;8.77;;
19059;SDS011;9663;48.996;8.334;2022-12-18T01:25:52;17.10;;;8.50;;
19059;SDS011;9663;48.996;8.334;2022-12-18T01:28:17;15.67;;;7.80;;
19059;SDS011;9663;48.996;8.334;2022-12-18T01:30:43;17.30;;;7.70;;
19059;SDS011;9663;48.996;8.334;2022-12-18T01:33:09;16.50;;;7.80;;
19059;SDS011;9663;48.996;8.334;2022-12-18T01:35:41;15.90;;;7.60;;
19059;SDS011;9663;48.996;8.334;2022-12-18T01:38:07;15.48;;;7.32;;
19059;SDS011;9663;48.996;8.334;2022-12-18T01:40:34;16.13;;;7.50;;
19059;SDS011;9663;48.996;8.334;2022-12-18T01:42:59;17.63;;;7.73;;
19059;SDS011;9663;48.996;8.334;2022-12-18T01:45:27;16.27;;;7.70;;
19059;SDS011;9663;48.996;8.334;2022-12-18T01:48:03;15.00;;;7.43;;
19059;SDS011;9663;48.996;8.334;2022-12-18T01:50:35;15.93;;;6.97;;
19059;SDS011;9663;48.996;8.334;2022-12-18T01:53:07;15.47;;;7.40;;
19059;SDS011;9663;48.996;8.334;2022-12-18T01:55:48;16.63;;;7.65;;
19059;SDS011;9663;48.996;8.334;2022-12-18T01:58:19;17.57;;;7.53;;
19059;SDS011;9663;48.996;8.334;2022-12-18T02:00:52;15.45;;;7.70;;
19059;SDS011;9663;48.996;8.334;2022-12-18T02:03:19;15.07;;;7.60;;
19059;SDS011;9663;48.996;8.334;2022-12-18T02:14:38;15.57;;;7.33;;
19059;SDS011;9663;48.996;8.334;2022-12-18T02:27:51;14.85;;;6.97;;
19059;SDS011;9663;48.996;8.334;2022-12-18T02:30:19;17.43;;;7.93;;
19059;SDS011;9663;48.996;8.334;2022-12-18T02:32:48;16.87;;;8.33;;
19059;SDS011;9663;48.996;8.334;2022-12-18T02:35:20;16.43;;;8.17;;
19059;SDS011;9663;48.996;8.334;2022-12-18T02:37:55;18.73;;;8.90;;
19059;SDS011;9663;48.996;8.334;2022-12-18T02:40:22;19.17;;;8.57;;
19059;SDS011;9663;48.996;8.334;2022-12-18T02:42:51;18.97;;;8.30;;
19059;SDS011;9663;48.996;8.334;2022-12-18T02:45:17;17.80;;;8.60;;
19059;SDS011;9663;48.996;8.334;2022-12-18T02:47:43;20.90;;;9.67;;
19059;SDS011;9663;48.996;8.334;2022-12-18T02:58:55;20.97;;;9.03;;
19059;SDS011;9663;48.996;8.334;2022-12-18T03:05:30;16.10;;;7.83;;
19059;SDS011;9663;48.996;8.334;2022-12-18T03:08:05;14.70;;;7.20;;
19059;SDS011;9663;48.996;8.334;2022-12-18T03:10:39;16.33;;;8.20;;
19059;SDS011;9663;48.996;8.334;2022-12-18T03:13:20;15.07;;;7.67;;
19059;SDS011;9663;48.996;8.334;2022-12-18T03:15:55;15.25;;;7.43;;
19059;SDS011;9663;48.996;8.334;2022-12-18T03:18:35;15.40;;;8.13;;
19059;SDS011;9663;48.996;8.334;2022-12-18T03:21:24;15.60;;;7.73;;
19059;SDS011;9663;48.996;8.334;2022-12-18T03:24:00;13.70;;;6.90;;
19059;SDS011;9663;48.996;8.334;2022-12-18T03:26:32;15.32;;;7.45;;
19059;SDS011;9663;48.996;8.334;2022-12-18T03:29:07;14.48;;;6.57;;
19059;SDS011;9663;48.996;8.334;2022-12-18T03:31:42;15.00;;;7.23;;
19059;SDS011;9663;48.996;8.334;2022-12-18T03:34:26;14.53;;;7.37;;
19059;SDS011;9663;48.996;8.334;2022-12-18T03:36:58;17.70;;;7.87;;
19059;SDS011;9663;48.996;8.334;2022-12-18T03:39:24;12.97;;;6.70;;
19059;SDS011;9663;48.996;8.334;2022-12-18T03:42:01;14.70;;;6.77;;
19059;SDS011;9663;48.996;8.334;2022-12-18T03:45:37;15.43;;;7.30;;
19059;SDS011;9663;48.996;8.334;2022-12-18T03:48:08;16.63;;;6.97;;
19059;SDS011;9663;48.996;8.334;2022-12-18T03:51:05;13.37;;;6.90;;
19059;SDS011;9663;48.996;8.334;2022-12-18T03:53:51;14.17;;;6.90;;
19059;SDS011;9663;48.996;8.334;2022-12-18T03:56:29;16.07;;;7.30;;
19059;SDS011;9663;48.996;8.334;2022-12-18T03:59:00;16.80;;;7.53;;
19059;SDS011;9663;48.996;8.334;2022-12-18T04:01:30;14.33;;;7.27;;
19059;SDS011;9663;48.996;8.334;2022-12-18T04:04:01;14.50;;;7.83;;
19059;SDS011;9663;48.996;8.334;2022-12-18T04:06:29;15.87;;;7.50;;
19059;SDS011;9663;48.996;8.334;2022-12-18T04:08:57;16.47;;;8.03;;
19059;SDS011;9663;48.996;8.334;2022-12-18T04:11:23;16.20;;;7.83;;
19059;SDS011;9663;48.996;8.334;2022-12-18T04:13:49;16.70;;;7.80;;
19059;SDS011;9663;48.996;8.334;2022-12-18T04:16:15;16.77;;;7.77;;
19059;SDS011;9663;48.996;8.334;2022-12-18T04:18:41;19.03;;;8.63;;
19059;SDS011;9663;48.996;8.334;2022-12-18T04:21:06;17.00;;;8.33;;
19059;SDS011;9663;48.996;8.334;2022-12-18T04:23:32;17.17;;;7.97;;
19059;SDS011;9663;48.996;8.334;2022-12-18T04:25:58;17.37;;;8.47;;
19059;SDS011;9663;48.996;8.334;2022-12-18T04:28:23;17.77;;;7.20;;
19059;SDS011;9663;48.996;8.334;2022-12-18T04:30:49;17.40;;;7.90;;
19059;SDS011;9663;48.996;8.334;2022-12-18T04:33:15;17.73;;;8.27;;
19059;SDS011;9663;48.996;8.334;2022-12-18T04:35:42;16.53;;;8.10;;
19059;SDS011;9663;48.996;8.334;2022-12-18T04:38:08;19.30;;;8.47;;
19059;SDS011;9663;48.996;8.334;2022-12-18T04:40:35;19.20;;;9.07;;
19059;SDS011;9663;48.996;8.334;2022-12-18T04:43:02;18.30;;;8.70;;
19059;SDS011;9663;48.996;8.334;2022-12-18T04:45:31;19.03;;;8.20;;
19059;SDS011;9663;48.996;8.334;2022-12-18T04:47:58;17.70;;;8.20;;
19059;SDS011;9663;48.996;8.334;2022-12-18T04:50:25;20.63;;;8.27;;
19059;SDS011;9663;48.996;8.334;2022-12-18T04:52:51;17.73;;;8.53;;
19059;SDS011;9663;48.996;8.334;2022-12-18T04:55:17;18.27;;;7.97;;
19059;SDS011;9663;48.996;8.334;2022-12-18T04:57:43;20.67;;;8.63;;
19059;SDS011;9663;48.996;8.334;2022-12-18T05:00:09;17.97;;;8.07;;
19059;SDS011;9663;48.996;8.334;2022-12-18T05:02:35;20.87;;;9.23;;
19059;SDS011;9663;48.996;8.334;2022-12-18T05:05:01;22.23;;;9.40;;
19059;SDS011;9663;48.996;8.334;2022-12-18T05:07:27;23.37;;;8.93;;
19059;SDS011;9663;48.996;8.334;2022-12-18T05:09:53;21.20;;;9.17;;
19059;SDS011;9663;48.996;8.334;2022-12-18T05:12:19;20.93;;;9.47;;
19059;SDS011;9663;48.996;8.334;2022-12-18T05:14:44;21.73;;;9.13;;
19059;SDS011;9663;48.996;8.334;2022-12-18T05:17:10;19.27;;;8.63;;
19059;SDS011;9663;48.996;8.334;2022-12-18T05:19:37;19.37;;;8.50;;
19059;SDS011;9663;48.996;8.334;2022-12-18T05:22:02;18.57;;;7.83;;
19059;SDS011;9663;48.996;8.334;2022-12-18T05:24:28;18.70;;;9.13;;
19059;SDS011;9663;48.996;8.334;2022-12-18T05:26:54;18.13;;;8.20;;
19059;SDS011;9663;48.996;8.334;2022-12-18T05:29:19;16.53;;;8.17;;
19059;SDS011;9663;48.996;8.334;2022-12-18T05:31:45;16.53;;;7.43;;
19059;SDS011;9663;48.996;8.334;2022-12-18T05:34:11;20.77;;;8.47;;
19059;SDS011;9663;48.996;8.334;2022-12-18T05:36:36;17.97;;;7.87;;
19059;SDS011;9663;48.996;8.334;2022-12-18T05:39:02;19.57;;;8.40;;
19059;SDS011;9663;48.996;8.334;2022-12-18T05:41:28;17.60;;;8.00;;
19059;SDS011;9663;48.996;8.334;2022-12-18T05:43:53;17.33;;;8.70;;
19059;SDS011;9663;48.996;8.334;2022-12-18T05:46:19;16.13;;;7.67;;
19059;SDS011;9663;48.996;8.334;2022-12-18T05:48:45;16.67;;;8.13;;
19059;SDS011;9663;48.996;8.334;2022-12-18T05:51:12;16.50;;;7.78;;
19059;SDS011;9663;48.996;8.334;2022-12-18T05:53:40;18.43;;;8.63;;
19059;SDS011;9663;48.996;8.334;2022-12-18T05:56:08;18.95;;;8.40;;
19059;SDS011;9663;48.996;8.334;2022-12-18T05:58:41;17.17;;;7.77;;
19059;SDS011;9663;48.996;8.334;2022-12-18T06:01:09;17.80;;;8.27;;
19059;SDS011;9663;48.996;8.334;2022-12-18T06:03:44;16.90;;;7.87;;
19059;SDS011;9663;48.996;8.334;2022-12-18T06:06:14;17.27;;;7.53;;
19059;SDS011;9663;48.996;8.334;2022-12-18T06:08:42;20.00;;;7.93;;
19059;SDS011;9663;48.996;8.334;2022-12-18T06:11:08;21.35;;;7.45;;
19059;SDS011;9663;48.996;8.334;2022-12-18T06:13:33;17.85;;;8.10;;
19059;SDS011;9663;48.996;8.334;2022-12-18T06:16:01;19.47;;;8.27;;
19059;SDS011;9663;48.996;8.334;2022-12-18T06:18:29;17.35;;;7.38;;
19059;SDS011;9663;48.996;8.334;2022-12-18T06:20:55;17.17;;;7.20;;
19059;SDS011;9663;48.996;8.334;2022-12-18T06:23:22;18.10;;;7.43;;
19059;SDS011;9663;48.996;8.334;2022-12-18T06:25:48;18.73;;;7.72;;
19059;SDS011;9663;48.996;8.334;2022-12-18T06:28:13;20.27;;;8.13;;
19059;SDS011;9663;48.996;8.334;2022-12-18T06:30:39;16.20;;;7.65;;
19059;SDS011;9663;48.996;8.334;2022-12-18T06:33:05;14.30;;;6.83;;
19059;SDS011;9663;48.996;8.334;2022-12-18T06:35:31;18.37;;;7.57;;
19059;SDS011;9663;48.996;8.334;2022-12-18T06:37:57;16.60;;;7.30;;
19059;SDS011;9663;48.996;8.334;2022-12-18T06:40:23;19.20;;;8.00;;
19059;SDS011;9663;48.996;8.334;2022-12-18T06:42:48;19.95;;;8.55;;
19059;SDS011;9663;48.996;8.334;2022-12-18T06:45:14;19.48;;;7.95;;
19059;SDS011;9663;48.996;8.334;2022-12-18T06:47:40;17.17;;;7.53;;
19059;SDS011;9663;48.996;8.334;2022-12-18T06:50:05;19.27;;;8.47;;
19059;SDS011;9663;48.996;8.334;2022-12-18T06:52:34;18.90;;;8.03;;
19059;SDS011;9663;48.996;8.334;2022-12-18T06:55:00;17.80;;;7.30;;
19059;SDS011;9663;48.996;8.334;2022-12-18T06:57:25;15.07;;;6.47;;
19059;SDS011;9663;48.996;8.334;2022-12-18T06:59:51;17.13;;;7.60;;
19059;SDS011;9663;48.996;8.334;2022-12-18T07:02:16;19.55;;;7.68;;
19059;SDS011;9663;48.996;8.334;2022-12-18T07:04:42;14.60;;;7.03;;
19059;SDS011;9663;48.996;8.334;2022-12-18T07:07:08;20.50;;;7.72;;
19059;SDS011;9663;48.996;8.334;2022-12-18T07:09:33;17.90;;;7.18;;
19059;SDS011;9663;48.996;8.334;2022-12-18T07:11:59;17.55;;;7.45;;
19059;SDS011;9663;48.996;8.334;2022-12-18T07:14:25;16.80;;;6.75;;
19059;SDS011;9663;48.996;8.334;2022-12-18T07:16:50;17.40;;;7.53;;
19059;SDS011;9663;48.996;8.334;2022-12-18T07:19:16;16.08;;;6.20;;
19059;SDS011;9663;48.996;8.334;2022-12-18T07:21:42;19.03;;;7.33;;
19059;SDS011;9663;48.996;8.334;2022-12-18T07:24:07;18.50;;;7.78;;
19059;SDS011;9663;48.996;8.334;2022-12-18T07:26:33;17.25;;;7.13;;
19059;SDS011;9663;48.996;8.334;2022-12-18T07:28:59;18.38;;;7.65;;
19059;SDS011;9663;48.996;8.334;2022-12-18T07:31:24;18.42;;;7.45;;
19059;SDS011;9663;48.996;8.334;2022-12-18T07:33:51;18.25;;;7.75;;
19059;SDS011;9663;48.996;8.334;2022-12-18T07:36:17;21.77;;;7.88;;
19059;SDS011;9663;48.996;8.334;2022-12-18T07:38:46;18.60;;;7.65;;
19059;SDS011;9663;48.996;8.334;2022-12-18T07:41:13;19.25;;;7.97;;
19059;SDS011;9663;48.996;8.334;2022-12-18T07:43:40;19.55;;;7.28;;
19059;SDS011;9663;48.996;8.334;2022-12-18T07:46:07;19.65;;;7.45;;
19059;SDS011;9663;48.996;8.334;2022-12-18T07:48:34;18.33;;;7.88;;
19059;SDS011;9663;48.996;8.334;2022-12-18T07:51:00;18.75;;;7.20;;
19059;SDS011;9663;48.996;8.334;2022-12-18T07:53:29;17.50;;;7.65;;
19059;SDS011;9663;48.996;8.334;2022-12-18T07:55:59;16.90;;;7.38;;
19059;SDS011;9663;48.996;8.334;2022-12-18T07:58:30;20.58;;;8.15;;
19059;SDS011;9663;48.996;8.334;2022-12-18T08:01:04;18.55;;;8.00;;
19059;SDS011;9663;48.996;8.334;2022-12-18T08:03:36;20.33;;;7.78;;
19059;SDS011;9663;48.996;8.334;2022-12-18T08:06:04;19.52;;;7.50;;
19059;SDS011;9663;48.996;8.334;2022-12-18T08:08:33;15.73;;;6.97;;
19059;SDS011;9663;48.996;8.334;2022-12-18T08:11:00;21.17;;;8.00;;
19059;SDS011;9663;48.996;8.334;2022-12-18T08:13:26;18.33;;;7.47;;
19059;SDS011;9663;48.996;8.334;2022-12-18T08:15:59;18.15;;;8.25;;
19059;SDS011;9663;48.996;8.334;2022-12-18T08:18:32;18.48;;;7.20;;
19059;SDS011;9663;48.996;8.334;2022-12-18T08:21:12;20.95;;;7.97;;
19059;SDS011;9663;48.996;8.334;2022-12-18T08:23:43;20.02;;;7.97;;
19059;SDS011;9663;48.996;8.334;2022-12-18T08:26:12;20.63;;;7.82;;
19059;SDS011;9663;48.996;8.334;2022-12-18T08:28:39;19.58;;;7.45;;
19059;SDS011;9663;48.996;8.334;2022-12-18T08:31:05;15.90;;;7.15;;
19059;SDS011;9663;48.996;8.334;2022-12-18T08:33:32;18.25;;;7.78;;
19059;SDS011;9663;48.996;8.334;2022-12-18T08:35:59;17.02;;;7.43;;
19059;SDS011;9663;48.996;8.334;2022-12-18T08:38:26;16.45;;;7.28;;
19059;SDS011;9663;48.996;8.334;2022-12-18T08:41:02;18.88;;;7.85;;
19059;SDS011;9663;48.996;8.334;2022-12-18T08:43:31;18.05;;;7.07;;
19059;SDS011;9663;48.996;8.334;2022-12-18T08:46:17;20.85;;;7.13;;
19059;SDS011;9663;48.996;8.334;2022-12-18T08:48:44;18.83;;;6.93;;
19059;SDS011;9663;48.996;8.334;2022-12-18T08:51:10;19.58;;;8.07;;
19059;SDS011;9663;48.996;8.334;2022-12-18T08:53:36;22.92;;;8.05;;
19059;SDS011;9663;48.996;8.334;2022-12-18T08:56:03;16.88;;;7.18;;
19059;SDS011;9663;48.996;8.334;2022-12-18T08:58:29;20.70;;;7.32;;
19059;SDS011;9663;48.996;8.334;2022-12-18T09:01:02;19.15;;;7.43;;
19059;SDS011;9663;48.996;8.334;2022-12-18T09:03:31;16.90;;;6.68;;
19059;SDS011;9663;48.996;8.334;2022-12-18T09:05:57;20.02;;;7.32;;
19059;SDS011;9663;48.996;8.334;2022-12-18T09:08:24;19.35;;;7.25;;
19059;SDS011;9663;48.996;8.334;2022-12-18T09:10:51;17.85;;;7.18;;
19059;SDS011;9663;48.996;8.334;2022-12-18T09:13:17;17.08;;;8.18;;
19059;SDS011;9663;48.996;8.334;2022-12-18T09:15:44;18.77;;;7.53;;
19059;SDS011;9663;48.996;8.334;2022-12-18T09:18:12;17.65;;;7.05;;
19059;SDS011;9663;48.996;8.334;2022-12-18T09:20:40;18.85;;;6.88;;
19059;SDS011;9663;48.996;8.334;2022-12-18T09:23:06;17.42;;;7.68;;
19059;SDS011;9663;48.996;8.334;2022-12-18T09:25:33;18.73;;;7.00;;
19059;SDS011;9663;48.996;8.334;2022-12-18T09:28:01;17.90;;;7.05;;
19059;SDS011;9663;48.996;8.334;2022-12-18T09:30:29;20.25;;;8.20;;
19059;SDS011;9663;48.996;8.334;2022-12-18T09:32:55;17.38;;;6.88;;
19059;SDS011;9663;48.996;8.334;2022-12-18T09:35:21;16.35;;;7.07;;
19059;SDS011;9663;48.996;8.334;2022-12-18T09:37:47;17.98;;;7.30;;
19059;SDS011;9663;48.996;8.334;2022-12-18T09:40:13;19.45;;;7.93;;
19059;SDS011;9663;48.996;8.334;2022-12-18T09:42:43;18.48;;;6.97;;
19059;SDS011;9663;48.996;8.334;2022-12-18T09:45:17;18.00;;;6.88;;
19059;SDS011;9663;48.996;8.334;2022-12-18T09:47:43;21.08;;;7.32;;
19059;SDS011;9663;48.996;8.334;2022-12-18T09:53:03;18.42;;;7.13;;
19059;SDS011;9663;48.996;8.334;2022-12-18T09:55:41;18.83;;;7.78;;
19059;SDS011;9663;48.996;8.334;2022-12-18T09:58:16;16.65;;;6.72;;
19059;SDS011;9663;48.996;8.334;2022-12-18T10:00:54;18.50;;;7.35;;
19059;SDS011;9663;48.996;8.334;2022-12-18T10:03:20;17.50;;;6.93;;
19059;SDS011;9663;48.996;8.334;2022-12-18T10:05:53;22.65;;;8.32;;
19059;SDS011;9663;48.996;8.334;2022-12-18T10:08:45;19.45;;;7.95;;
19059;SDS011;9663;48.996;8.334;2022-12-18T10:14:34;17.80;;;7.97;;
19059;SDS011;9663;48.996;8.334;2022-12-18T10:20:29;18.70;;;7.38;;
19059;SDS011;9663;48.996;8.334;2022-12-18T10:23:13;18.90;;;6.53;;
19059;SDS011;9663;48.996;8.334;2022-12-18T10:26:06;19.88;;;7.30;;
19059;SDS011;9663;48.996;8.334;2022-12-18T10:28:35;18.77;;;7.35;;
19059;SDS011;9663;48.996;8.334;2022-12-18T10:31:05;16.95;;;7.10;;
19059;SDS011;9663;48.996;8.334;2022-12-18T10:33:32;19.95;;;7.15;;
19059;SDS011;9663;48.996;8.334;2022-12-18T10:35:59;18.67;;;7.45;;
19059;SDS011;9663;48.996;8.334;2022-12-18T10:38:29;19.08;;;7.38;;
19059;SDS011;9663;48.996;8.334;2022-12-18T10:48:34;20.25;;;8.18;;
19059;SDS011;9663;48.996;8.334;2022-12-18T10:51:15;19.50;;;7.32;;
19059;SDS011;9663;48.996;8.334;2022-12-18T10:53:55;20.45;;;8.45;;
19059;SDS011;9663;48.996;8.334;2022-12-18T10:56:21;16.58;;;6.82;;
19059;SDS011;9663;48.996;8.334;2022-12-18T10:58:56;21.83;;;7.72;;
19059;SDS011;9663;48.996;8.334;2022-12-18T11:01:26;16.80;;;6.85;;
19059;SDS011;9663;48.996;8.334;2022-12-18T11:06:22;22.55;;;8.45;;
19059;SDS011;9663;48.996;8.334;2022-12-18T11:11:29;18.30;;;7.72;;
19059;SDS011;9663;48.996;8.334;2022-12-18T11:14:12;18.73;;;8.88;;
19059;SDS011;9663;48.996;8.334;2022-12-18T11:17:00;18.92;;;8.57;;
19059;SDS011;9663;48.996;8.334;2022-12-18T11:22:53;17.58;;;7.07;;
19059;SDS011;9663;48.996;8.334;2022-12-18T11:25:00;19.63;;;7.43;;
19059;SDS011;9663;48.996;8.334;2022-12-18T11:27:29;17.38;;;7.47;;
19059;SDS011;9663;48.996;8.334;2022-12-18T11:30:08;19.17;;;7.18;;
19059;SDS011;9663;48.996;8.334;2022-12-18T11:32:46;18.58;;;7.22;;
19059;SDS011;9663;48.996;8.334;2022-12-18T11:35:32;18.15;;;7.85;;
19059;SDS011;9663;48.996;8.334;2022-12-18T11:38:26;18.33;;;7.78;;
19059;SDS011;9663;48.996;8.334;2022-12-18T11:41:03;19.27;;;7.50;;
19059;SDS011;9663;48.996;8.334;2022-12-18T11:44:11;17.30;;;7.57;;
19059;SDS011;9663;48.996;8.334;2022-12-18T11:46:48;23.45;;;9.73;;
19059;SDS011;9663;48.996;8.334;2022-12-18T11:49:24;26.10;;;10.18;;
19059;SDS011;9663;48.996;8.334;2022-12-18T11:54:41;20.27;;;8.98;;
19059;SDS011;9663;48.996;8.334;2022-12-18T11:57:10;20.48;;;8.50;;
19059;SDS011;9663;48.996;8.334;2022-12-18T11:59:53;20.40;;;8.30;;
19059;SDS011;9663;48.996;8.334;2022-12-18T12:06:19;20.45;;;9.00;;
19059;SDS011;9663;48.996;8.334;2022-12-18T12:15:21;19.85;;;8.05;;
19059;SDS011;9663;48.996;8.334;2022-12-18T12:21:14;21.75;;;8.77;;
19059;SDS011;9663;48.996;8.334;2022-12-18T12:27:41;22.42;;;9.40;;
19059;SDS011;9663;48.996;8.334;2022-12-18T12:30:36;24.30;;;9.80;;
19059;SDS011;9663;48.996;8.334;2022-12-18T12:39:37;18.77;;;8.43;;
19059;SDS011;9663;48.996;8.334;2022-12-18T12:45:45;18.52;;;8.73;;
19059;SDS011;9663;48.996;8.334;2022-12-18T12:48:28;22.20;;;9.40;;
19059;SDS011;9663;48.996;8.334;2022-12-18T12:51:25;19.42;;;9.23;;
19059;SDS011;9663;48.996;8.334;2022-12-18T12:54:01;20.17;;;10.02;;
19059;SDS011;9663;48.996;8.334;2022-12-18T12:56:54;22.88;;;10.07;;
19059;SDS011;9663;48.996;8.334;2022-12-18T12:59:39;18.20;;;8.25;;
19059;SDS011;9663;48.996;8.334;2022-12-18T13:02:14;20.98;;;8.57;;
19059;SDS011;9663;48.996;8.334;2022-12-18T13:07:56;18.67;;;8.43;;
19059;SDS011;9663;48.996;8.334;2022-12-18T13:13:07;21.50;;;10.02;;
19059;SDS011;9663;48.996;8.334;2022-12-18T13:15:37;18.25;;;8.10;;
19059;SDS011;9663;48.996;8.334;2022-12-18T13:20:47;17.30;;;8.45;;
19059;SDS011;9663;48.996;8.334;2022-12-18T13:31:14;16.98;;;8.18;;
19059;SDS011;9663;48.996;8.334;2022-12-18T13:36:49;21.27;;;8.85;;
19059;SDS011;9663;48.996;8.334;2022-12-18T13:39:21;18.05;;;8.30;;
19059;SDS011;9663;48.996;8.334;2022-12-18T13:44:33;19.35;;;9.35;;
19059;SDS011;9663;48.996;8.334;2022-12-18T13:47:02;19.45;;;9.27;;
19059;SDS011;9663;48.996;8.334;2022-12-18T13:49:35;21.45;;;11.32;;
19059;SDS011;9663;48.996;8.334;2022-12-18T13:52:24;20.88;;;10.05;;
19059;SDS011;9663;48.996;8.334;2022-12-18T13:54:55;21.55;;;10.13;;
19059;SDS011;9663;48.996;8.334;2022-12-18T13:57:27;19.67;;;9.57;;
19059;SDS011;9663;48.996;8.334;2022-12-18T13:59:55;23.50;;;10.57;;
19059;SDS011;9663;48.996;8.334;2022-12-18T14:02:26;22.70;;;10.80;;
19059;SDS011;9663;48.996;8.334;2022-12-18T14:04:53;20.55;;;11.20;;
19059;SDS011;9663;48.996;8.334;2022-12-18T14:07:24;21.42;;;10.98;;
19059;SDS011;9663;48.996;8.334;2022-12-18T14:09:53;25.80;;;11.73;;
19059;SDS011;9663;48.996;8.334;2022-12-18T14:12:31;24.33;;;11.32;;
19059;SDS011;9663;48.996;8.334;2022-12-18T14:20:50;19.60;;;9.60;;
19059;SDS011;9663;48.996;8.334;2022-12-18T14:23:51;21.00;;;10.10;;
19059;SDS011;9663;48.996;8.334;2022-12-18T14:26:26;20.95;;;9.65;;
19059;SDS011;9663;48.996;8.334;2022-12-18T14:28:56;18.98;;;8.75;;
19059;SDS011;9663;48.996;8.334;2022-12-18T14:31:26;19.80;;;9.02;;
19059;SDS011;9663;48.996;8.334;2022-12-18T14:33:56;17.42;;;8.00;;
19059;SDS011;9663;48.996;8.334;2022-12-18T14:36:27;18.05;;;8.00;;
19059;SDS011;9663;48.996;8.334;2022-12-18T14:38:55;18.45;;;8.95;;
19059;SDS011;9663;48.996;8.334;2022-12-18T14:41:23;18.45;;;9.13;;
19059;SDS011;9663;48.996;8.334;2022-12-18T14:43:51;21.10;;;9.75;;
19059;SDS011;9663;48.996;8.334;2022-12-18T14:48:57;20.55;;;9.13;;
19059;SDS011;9663;48.996;8.334;2022-12-18T14:52:06;17.75;;;7.68;;
19059;SDS011;9663;48.996;8.334;2022-12-18T14:54:53;20.50;;;8.77;;
19059;SDS011;9663;48.996;8.334;2022-12-18T14:57:22;20.80;;;9.10;;
19059;SDS011;9663;48.996;8.334;2022-12-18T14:59:55;19.08;;;9.25;;
19059;SDS011;9663;48.996;8.334;2022-12-18T15:02:41;20.38;;;8.77;;
19059;SDS011;9663;48.996;8.334;2022-12-18T15:07:57;19.70;;;8.88;;
19059;SDS011;9663;48.996;8.334;2022-12-18T15:15:47;22.10;;;9.15;;
19059;SDS011;9663;48.996;8.334;2022-12-18T15:18:14;20.40;;;8.68;;
19059;SDS011;9663;48.996;8.334;2022-12-18T15:20:46;19.88;;;9.13;;
19059;SDS011;9663;48.996;8.334;2022-12-18T15:23:45;17.73;;;8.50;;
19059;SDS011;9663;48.996;8.334;2022-12-18T15:26:18;20.10;;;8.40;;
19059;SDS011;9663;48.996;8.334;2022-12-18T15:28:47;17.40;;;8.07;;
19059;SDS011;9663;48.996;8.334;2022-12-18T15:34:13;16.95;;;7.53;;
19059;SDS011;9663;48.996;8.334;2022-12-18T15:36:45;19.52;;;8.30;;
19059;SDS011;9663;48.996;8.334;2022-12-18T15:39:12;23.60;;;9.05;;
19059;SDS011;9663;48.996;8.334;2022-12-18T15:41:38;18.42;;;8.43;;
19059;SDS011;9663;48.996;8.334;2022-12-18T15:44:21;18.70;;;8.70;;
19059;SDS011;9663;48.996;8.334;2022-12-18T15:46:49;18.73;;;8.52;;
19059;SDS011;9663;48.996;8.334;2022-12-18T15:49:15;18.25;;;8.60;;
19059;SDS011;9663;48.996;8.334;2022-12-18T15:51:40;16.92;;;7.97;;
19059;SDS011;9663;48.996;8.334;2022-12-18T15:54:09;20.90;;;8.82;;
19059;SDS011;9663;48.996;8.334;2022-12-18T15:56:40;17.38;;;8.23;;
19059;SDS011;9663;48.996;8.334;2022-12-18T15:59:24;16.45;;;7.43;;
19059;SDS011;9663;48.996;8.334;2022-12-18T16:01:51;19.40;;;8.63;;
19059;SDS011;9663;48.996;8.334;2022-12-18T16:04:21;18.73;;;8.98;;
19059;SDS011;9663;48.996;8.334;2022-12-18T16:06:49;21.02;;;9.63;;
19059;SDS011;9663;48.996;8.334;2022-12-18T16:09:16;20.70;;;9.18;;
19059;SDS011;9663;48.996;8.334;2022-12-18T16:11:42;21.80;;;9.23;;
19059;SDS011;9663;48.996;8.334;2022-12-18T16:14:17;21.20;;;9.70;;
19059;SDS011;9663;48.996;8.334;2022-12-18T16:16:53;15.45;;;7.80;;
19059;SDS011;9663;48.996;8.334;2022-12-18T16:19:22;19.88;;;7.90;;
19059;SDS011;9663;48.996;8.334;2022-12-18T16:21:49;19.10;;;8.23;;
19059;SDS011;9663;48.996;8.334;2022-12-18T16:24:18;18.23;;;8.38;;
19059;SDS011;9663;48.996;8.334;2022-12-18T16:26:50;18.13;;;8.55;;
19059;SDS011;9663;48.996;8.334;2022-12-18T16:29:17;17.73;;;8.43;;
19059;SDS011;9663;48.996;8.334;2022-12-18T16:31:45;17.27;;;7.85;;
19059;SDS011;9663;48.996;8.334;2022-12-18T16:36:57;19.50;;;8.48;;
19059;SDS011;9663;48.996;8.334;2022-12-18T16:39:25;16.00;;;7.55;;
19059;SDS011;9663;48.996;8.334;2022-12-18T16:41:52;18.67;;;8.15;;
19059;SDS011;9663;48.996;8.334;2022-12-18T16:44:18;19.58;;;8.55;;
19059;SDS011;9663;48.996;8.334;2022-12-18T16:46:44;22.75;;;9.27;;
19059;SDS011;9663;48.996;8.334;2022-12-18T16:49:10;18.83;;;8.15;;
19059;SDS011;9663;48.996;8.334;2022-12-18T16:51:42;17.17;;;7.78;;
19059;SDS011;9663;48.996;8.334;2022-12-18T16:54:08;19.52;;;7.78;;
19059;SDS011;9663;48.996;8.334;2022-12-18T16:56:34;19.42;;;8.73;;
19059;SDS011;9663;48.996;8.334;2022-12-18T16:59:02;17.35;;;7.80;;
19059;SDS011;9663;48.996;8.334;2022-12-18T17:01:29;17.95;;;7.97;;
19059;SDS011;9663;48.996;8.334;2022-12-18T17:04:00;17.42;;;7.68;;
19059;SDS011;9663;48.996;8.334;2022-12-18T17:06:30;17.10;;;8.55;;
19059;SDS011;9663;48.996;8.334;2022-12-18T17:09:00;17.63;;;7.60;;
19059;SDS011;9663;48.996;8.334;2022-12-18T17:11:30;19.38;;;7.28;;
19059;SDS011;9663;48.996;8.334;2022-12-18T17:13:58;16.60;;;7.47;;
19059;SDS011;9663;48.996;8.334;2022-12-18T17:16:29;17.58;;;8.32;;
19059;SDS011;9663;48.996;8.334;2022-12-18T17:18:55;19.60;;;8.27;;
19059;SDS011;9663;48.996;8.334;2022-12-18T17:21:20;17.05;;;7.55;;